createdAt,value
2022-12-28T00:01:41.304Z,1002.30
2022-12-28T00:06:41.226Z,1002.34
2022-12-28T00:11:41.181Z,1002.33
2022-12-28T00:16:41.170Z,1002.16
2022-12-28T00:21:41.057Z,1002.11
2022-12-28T00:26:41.031Z,1002.04
2022-12-28T00:31:41.125Z,1002.08
2022-12-28T00:37:09.226Z,1002.14
2022-12-28T00:41:41.912Z,1002.08
2022-12-28T00:46:40.891Z,1002.07
2022-12-28T00:51:40.715Z,1001.93
2022-12-28T00:56:42.794Z,1001.70
2022-12-28T01:01:40.845Z,1001.57
2022-12-28T01:06:40.707Z,1001.54
2022-12-28T01:11:40.532Z,1001.46
2022-12-28T01:16:40.535Z,1001.32
2022-12-28T01:21:40.396Z,1001.21
2022-12-28T01:26:40.325Z,1001.16
2022-12-28T01:31:40.348Z,1001.12
2022-12-28T01:36:40.230Z,1001.05
2022-12-28T01:41:40.182Z,1000.85
2022-12-28T01:46:40.249Z,1000.88
2022-12-28T01:51:40.101Z,1000.90
2022-12-28T01:56:40.009Z,1000.77
2022-12-28T02:01:40.004Z,1000.71
2022-12-28T02:06:40.003Z,1000.59
2022-12-28T02:11:41.981Z,1000.45
2022-12-28T02:16:40.024Z,1000.47
2022-12-28T02:21:39.943Z,1000.30
2022-12-28T02:26:39.722Z,1000.20
2022-12-28T02:31:39.652Z,1000.15
2022-12-28T02:36:39.752Z,1000.01
2022-12-28T02:41:39.557Z,999.91
2022-12-28T02:46:39.474Z,999.74
2022-12-28T02:51:39.428Z,999.65
2022-12-28T02:56:39.442Z,999.63
2022-12-28T03:01:39.450Z,999.66
2022-12-28T03:06:39.297Z,999.46
2022-12-28T03:11:39.189Z,999.42
2022-12-28T03:16:39.162Z,999.15
2022-12-28T03:21:39.107Z,999.33
2022-12-28T03:26:39.061Z,999.11
2022-12-28T03:31:38.985Z,999.06
2022-12-28T03:36:39.113Z,998.97
2022-12-28T03:41:39.071Z,998.86
2022-12-28T03:46:38.880Z,998.82
2022-12-28T03:51:38.826Z,998.90
2022-12-28T03:56:38.721Z,998.79
2022-12-28T04:01:38.855Z,998.65
2022-12-28T04:06:38.609Z,998.67
2022-12-28T04:11:38.589Z,998.54
2022-12-28T04:16:38.613Z,998.43
2022-12-28T04:21:38.461Z,998.46
2022-12-28T04:26:38.424Z,998.39
2022-12-28T04:31:38.443Z,998.30
2022-12-28T04:36:38.285Z,998.28
2022-12-28T04:41:38.234Z,998.17
2022-12-28T04:46:38.244Z,998.10
2022-12-28T04:51:38.138Z,998.06
2022-12-28T04:56:38.079Z,998.07
2022-12-28T05:01:38.429Z,998.07
2022-12-28T05:06:37.969Z,997.92
2022-12-28T05:11:37.935Z,997.74
2022-12-28T05:16:38.003Z,997.69
2022-12-28T05:21:37.861Z,997.76
2022-12-28T05:26:37.738Z,997.81
2022-12-28T05:31:37.799Z,997.75
2022-12-28T05:36:37.631Z,997.69
2022-12-28T05:41:37.615Z,997.67
2022-12-28T05:46:37.604Z,997.69
2022-12-28T05:51:39.764Z,997.72
2022-12-28T05:56:37.552Z,997.75
2022-12-28T06:01:37.595Z,997.75
2022-12-28T06:06:37.406Z,997.62
2022-12-28T06:11:37.273Z,997.68
2022-12-28T06:16:37.505Z,997.71
2022-12-28T06:21:37.171Z,997.62
2022-12-28T06:26:37.109Z,997.60
2022-12-28T06:31:37.077Z,997.58
2022-12-28T06:36:37.179Z,997.51
2022-12-28T06:41:36.954Z,997.55
2022-12-28T06:46:36.897Z,997.63
2022-12-28T06:51:36.833Z,997.47
2022-12-28T06:56:36.820Z,997.56
2022-12-28T07:01:36.902Z,997.58
2022-12-28T07:06:36.656Z,997.59
2022-12-28T07:11:36.660Z,997.62
2022-12-28T07:17:08.029Z,997.52
2022-12-28T07:22:08.129Z,997.53
2022-12-28T07:27:07.960Z,997.46
2022-12-28T07:32:07.921Z,997.46
2022-12-28T07:37:07.944Z,997.48
2022-12-28T07:42:07.988Z,997.46
2022-12-28T07:47:07.770Z,997.42
2022-12-28T07:52:07.731Z,997.32
2022-12-28T07:57:07.835Z,997.31
2022-12-28T08:02:08.033Z,997.31
2022-12-28T08:07:07.594Z,997.34
2022-12-28T08:12:07.518Z,997.22
2022-12-28T08:17:07.409Z,997.28
2022-12-28T08:22:07.354Z,997.23
2022-12-28T08:27:07.282Z,997.26
2022-12-28T08:32:07.225Z,997.19
2022-12-28T08:37:08.232Z,997.26
2022-12-28T08:42:07.180Z,997.05
2022-12-28T08:47:07.105Z,997.16
2022-12-28T08:52:07.027Z,997.09
2022-12-28T08:57:06.932Z,997.14
2022-12-28T09:02:07.069Z,997.11
2022-12-28T09:07:06.881Z,997.15
2022-12-28T09:12:06.809Z,997.10
2022-12-28T09:17:06.740Z,997.13
2022-12-28T09:22:06.711Z,997.08
2022-12-28T09:27:06.650Z,997.17
2022-12-28T09:32:06.657Z,997.06
2022-12-28T09:37:06.523Z,997.11
2022-12-28T09:42:06.562Z,997.16
2022-12-28T09:47:06.414Z,997.13
2022-12-28T09:52:06.372Z,997.15
2022-12-28T09:57:06.374Z,997.15
2022-12-28T10:02:06.373Z,997.13
2022-12-28T10:07:06.181Z,997.01
2022-12-28T10:12:06.109Z,996.97
2022-12-28T10:17:06.058Z,997.00
2022-12-28T10:22:06.046Z,996.96
2022-12-28T10:27:06.026Z,996.84
2022-12-28T10:32:05.911Z,996.94
2022-12-28T10:37:05.895Z,996.75
2022-12-28T10:42:05.837Z,996.69
2022-12-28T10:47:05.816Z,996.69
2022-12-28T10:52:05.689Z,996.56
2022-12-28T10:57:05.600Z,996.47
2022-12-28T11:02:05.649Z,996.46
2022-12-28T11:07:05.477Z,996.36
2022-12-28T11:12:05.426Z,996.30
2022-12-28T11:17:05.388Z,996.27
2022-12-28T11:22:05.432Z,996.12
2022-12-28T11:27:06.305Z,996.09
2022-12-28T11:32:05.238Z,996.13
2022-12-28T11:37:05.272Z,996.05
2022-12-28T11:42:38.510Z,996.06
2022-12-28T11:47:06.198Z,996.01
2022-12-28T11:52:05.011Z,996.03
2022-12-28T11:57:04.955Z,995.94
2022-12-28T12:02:04.945Z,996.06
2022-12-28T12:07:04.846Z,995.98
2022-12-28T12:12:04.782Z,995.90
2022-12-28T12:17:04.799Z,995.81
2022-12-28T12:22:04.812Z,995.70
2022-12-28T12:27:10.285Z,995.62
2022-12-28T12:32:05.611Z,995.54
2022-12-28T12:37:04.595Z,995.64
2022-12-28T12:42:04.460Z,995.71
2022-12-28T12:47:06.093Z,995.62
2022-12-28T12:52:04.334Z,995.63
2022-12-28T12:57:04.285Z,995.63
2022-12-28T13:02:04.663Z,995.61
2022-12-28T13:07:04.179Z,995.57
2022-12-28T13:12:04.107Z,995.61
2022-12-28T13:17:04.201Z,995.43
2022-12-28T13:22:04.074Z,995.09
2022-12-28T13:27:10.603Z,994.92
2022-12-28T13:32:04.984Z,995.02
2022-12-28T13:37:03.850Z,994.98
2022-12-28T13:42:03.770Z,994.85
2022-12-28T13:47:03.749Z,994.81
2022-12-28T13:52:03.676Z,994.59
2022-12-28T13:57:36.614Z,994.43
2022-12-28T14:02:04.700Z,994.40
2022-12-28T14:07:03.564Z,994.36
2022-12-28T14:12:03.515Z,994.41
2022-12-28T14:17:03.460Z,994.50
2022-12-28T14:22:04.329Z,994.41
2022-12-28T14:27:03.291Z,994.31
2022-12-28T14:32:03.211Z,994.12
2022-12-28T14:37:03.196Z,994.06
2022-12-28T14:42:03.118Z,993.97
2022-12-28T14:47:03.120Z,993.72
2022-12-28T14:52:03.015Z,993.77
2022-12-28T14:57:03.068Z,993.79
2022-12-28T15:02:03.019Z,993.71
2022-12-28T15:07:02.953Z,993.68
2022-12-28T15:12:04.839Z,993.55
2022-12-28T15:17:03.935Z,993.41
2022-12-28T15:22:02.694Z,993.22
2022-12-28T15:27:02.756Z,993.17
2022-12-28T15:32:02.590Z,993.11
2022-12-28T15:37:02.520Z,993.11
2022-12-28T15:42:07.846Z,992.99
2022-12-28T15:47:02.573Z,992.96
2022-12-28T15:52:02.391Z,992.81
2022-12-28T15:57:02.321Z,992.85
2022-12-28T16:02:02.479Z,992.77
2022-12-28T16:07:02.174Z,992.62
2022-12-28T16:12:02.247Z,992.46
2022-12-28T16:17:02.211Z,992.37
2022-12-28T16:22:02.098Z,992.30
2022-12-28T16:27:02.116Z,992.21
2022-12-28T16:32:01.927Z,992.17
2022-12-28T16:37:02.042Z,992.00
2022-12-28T16:42:01.783Z,991.93
2022-12-28T16:47:01.953Z,991.64
2022-12-28T16:52:01.881Z,991.73
2022-12-28T16:57:01.616Z,991.68
2022-12-28T17:02:01.958Z,991.57
2022-12-28T17:07:01.529Z,991.44
2022-12-28T17:12:01.471Z,991.38
2022-12-28T17:17:02.528Z,991.40
2022-12-28T17:22:01.545Z,991.38
2022-12-28T17:27:07.713Z,991.34
2022-12-28T17:32:02.603Z,991.32
2022-12-28T17:37:01.361Z,991.31
2022-12-28T17:42:01.289Z,991.30
2022-12-28T17:47:04.579Z,991.26
2022-12-28T17:52:01.044Z,991.18
2022-12-28T17:57:00.979Z,991.05
2022-12-28T18:02:01.153Z,991.02
2022-12-28T18:07:00.918Z,990.90
2022-12-28T18:12:00.841Z,990.87
2022-12-28T18:17:01.693Z,990.89
2022-12-28T18:22:00.736Z,990.76
2022-12-28T18:27:00.695Z,990.69
2022-12-28T18:32:00.653Z,990.50
2022-12-28T18:37:00.598Z,990.56
2022-12-28T18:42:00.647Z,990.50
2022-12-28T18:47:00.433Z,990.39
2022-12-28T18:52:00.385Z,990.41
2022-12-28T18:57:00.347Z,990.34
2022-12-28T19:02:14.531Z,990.27
2022-12-28T19:07:01.240Z,990.08
2022-12-28T19:12:00.197Z,990.06
2022-12-28T19:17:00.125Z,990.02
2022-12-28T19:22:00.064Z,989.89
2022-12-28T19:27:00.143Z,989.77
2022-12-28T19:32:00.005Z,989.75
2022-12-28T19:36:59.926Z,989.75
2022-12-28T19:41:59.863Z,989.73
2022-12-28T19:46:59.857Z,989.63
2022-12-28T19:51:59.752Z,989.74
2022-12-28T19:57:00.770Z,989.70
2022-12-28T20:01:59.768Z,989.62
2022-12-28T20:06:59.609Z,989.44
2022-12-28T20:11:59.633Z,989.48
2022-12-28T20:16:59.552Z,989.50
2022-12-28T20:21:59.439Z,989.35
2022-12-28T20:27:01.674Z,989.25
2022-12-28T20:31:59.319Z,989.35
2022-12-28T20:36:59.231Z,989.17
2022-12-28T20:41:59.184Z,989.21
2022-12-28T20:46:59.175Z,989.22
2022-12-28T20:52:00.074Z,989.11
2022-12-28T20:56:59.023Z,989.08
2022-12-28T21:01:59.038Z,989.08
2022-12-28T21:06:58.917Z,989.08
2022-12-28T21:11:58.890Z,989.06
2022-12-28T21:16:58.863Z,989.05
2022-12-28T21:21:58.746Z,989.00
2022-12-28T21:26:58.734Z,988.94
2022-12-28T21:31:58.670Z,988.90
2022-12-28T21:36:58.634Z,988.83
2022-12-28T21:41:58.551Z,988.92
2022-12-28T21:46:58.506Z,988.89
2022-12-28T21:51:58.463Z,988.72
2022-12-28T21:56:58.377Z,988.68
2022-12-28T22:01:58.499Z,988.56
2022-12-28T22:06:58.269Z,988.54
2022-12-28T22:11:58.180Z,988.42
2022-12-28T22:16:58.207Z,988.44
2022-12-28T22:21:58.069Z,988.27
2022-12-28T22:26:58.056Z,988.30
2022-12-28T22:31:57.996Z,988.26
2022-12-28T22:36:57.950Z,988.36
2022-12-28T22:41:57.940Z,988.27
2022-12-28T22:46:57.828Z,988.21
2022-12-28T22:51:57.797Z,988.22
2022-12-28T22:56:57.755Z,988.16
2022-12-28T23:01:57.806Z,988.23
2022-12-28T23:07:03.374Z,988.12
2022-12-28T23:11:58.592Z,988.07
2022-12-28T23:16:57.576Z,987.97
2022-12-28T23:21:57.469Z,987.95
2022-12-28T23:26:57.447Z,987.92
2022-12-28T23:31:57.376Z,987.97
2022-12-28T23:36:57.345Z,988.04
2022-12-28T23:41:57.191Z,987.87
2022-12-28T23:46:59.530Z,987.72
2022-12-28T23:51:57.140Z,987.62
2022-12-28T23:56:57.075Z,987.60
